Merced, CA

10:49 AM PST on November 28, 2014 (GMT -0800)
Castle | Change Station
CLOSE
Current Station
Airport
Location: Atwater,
Elevation: 187 ft
Nearby Weather Stations

Elev 187 ft 37.38 °N, 120.57 °W | Updated 1 hour ago

Clear
Clear
55 °F
Feels Like 55 °F
N
0
Wind Variable Wind from North

Today
High -- | Low -- °F
--% Chance of Precip.
Yesterday
High -- | Low -- °F
Precip. -- in
6:54 AM 4:45 PM
Waxing Crescent, 43% visible
Pressure 30.04 in
Visibility 6.0 miles
Clouds Clear
Dew Point 55 °F
Humidity 100%
Rainfall 0.00 in
Snow Depth Not available.
UV 2 out of 12
Pollen 2.10 out of 12
Air Quality Not available.
Flu Activity Not available.
METAR KMER 281745Z 00000KT 6SM SKC 13/13 A3004

More Conditions Fewer Conditions

Pressure 30.04 in
Visibility 6.0 miles
Clouds Clear
Dew Point 55 °F
Humidity 100%
Rainfall 0.00 in
Snow Depth Not available.
UV 2 out of 12
Pollen 2.10 out of 12
Air Quality Not available.
Flu Activity Not available.
METAR KMER 281745Z 00000KT 6SM SKC 13/13 A3004

More Conditions Fewer Conditions

10-Day Weather Forecast

Almanac

Astronomy

Nov. 28, 2014 Rise Set
Actual Time
Civil Twilight
Nautical Twilight
Astronomical Twilight
Moon
Length of Visible Light
Length of Day
Tomorrow will be .
, % of the Moon is Illuminated

Today's Extremes

State Highs State Lows

Community

WunderPhotos

Upload Photos

1,774,257 photos uploaded!

WunderBlogs® & News

Nearby

Air Quality

  Air Quality AQ Index Pollutant
Not available.

Snow Depth

Station Depth Elevation

Earthquake Activity

City Distance Mag. Time & Date
Minimum magnitude displayed is 2.5.

Coastal Water Temperatures

Place Temperature

Nearby Weather Stations